Joao Neiva, Brazil
Current Conditions -  °F | °C
As of 3:00 AM on Saturday 25 Oct 2014 (Local Time) from SBVT Reporting Station
Broken Clouds Broken Clouds  
Wind Chill: 70°   Ceiling: 3000
Heat Index: 70°   Visibility: 6mi
Dew Point: 63°   Wind: 3mph
Humidity: 78%   Direction: 330°NNW
Pressure: 29.94"   Gusts: NA
Location:  19.75°S, 40.4°W
Report Text: SBVT 250500Z 33003KT 9999 BKN030 21/17 Q1014
Loading
Personal Weather Stations






























Interactive Weather Map
Tropical Storm Tracking
New forecast layout! Learn more

10-Day Weather Forecast

Advertisements
Track Severe Weather on mobile